Time;durP1;ratioP1;P1;durP2;ratioP2;P2;SDS_P1;SDS_P2;PMS_P1;PMS_P2;Temp;Humidity;BMP_temperature;BMP_pressure;BME280_temperature;BME280_humidity;BME280_pressure;Samples;Min_cycle;Max_cycle;Signal;HPM_P1;HPM_P2
2022/05/29 00:00:43;;;;;;;3.92;2.10;;;;;;;;;;5080240;28;20471;-67
2022/05/29 00:03:09;;;;;;;6.03;1.98;;;;;;;;;;5082035;28;20711;-67
2022/05/29 00:05:37;;;;;;;9.75;2.30;;;;;;;;;;5081577;28;20036;-67
2022/05/29 00:08:03;;;;;;;4.80;2.25;;;;;;;;;;5081278;28;20097;-67
2022/05/29 00:10:28;;;;;;;4.50;1.98;;;;;;;;;;5081494;28;20056;-67
2022/05/29 00:12:54;;;;;;;6.03;2.55;;;;;;;;;;5080752;28;20032;-67
2022/05/29 00:15:19;;;;;;;5.28;2.00;;;;;;;;;;5081657;28;20473;-67
2022/05/29 00:17:45;;;;;;;5.25;2.00;;;;;;;;;;5080955;28;20054;-67
2022/05/29 00:20:10;;;;;;;3.80;1.90;;;;;;;;;;5081061;28;20046;-67
2022/05/29 00:22:38;;;;;;;4.13;2.30;;;;;;;;;;5080653;28;20050;-67
2022/05/29 00:25:08;;;;;;;5.38;2.63;;;;;;;;;;5081182;28;20032;-67
2022/05/29 00:27:34;;;;;;;4.88;2.47;;;;;;;;;;5080787;28;20042;-67
2022/05/29 00:29:59;;;;;;;8.50;2.65;;;;;;;;;;5080807;28;20486;-67
2022/05/29 00:32:25;;;;;;;3.65;2.35;;;;;;;;;;5081195;28;20043;-66
2022/05/29 00:34:51;;;;;;;3.08;2.28;;;;;;;;;;5062343;28;20043;-67
2022/05/29 00:37:16;;;;;;;9.02;2.70;;;;;;;;;;5081061;28;20556;-67
2022/05/29 00:39:42;;;;;;;2.58;1.90;;;;;;;;;;5080702;28;20113;-67
2022/05/29 00:42:11;;;;;;;4.95;1.90;;;;;;;;;;5081066;28;20046;-66
2022/05/29 00:44:36;;;;;;;4.72;2.10;;;;;;;;;;5080135;28;20039;-67
2022/05/29 00:47:14;;;;;;;6.28;2.63;;;;;;;;;;5081074;28;20031;-67
2022/05/29 00:49:41;;;;;;;5.22;2.15;;;;;;;;;;5080034;28;20043;-67
2022/05/29 00:52:18;;;;;;;4.68;2.30;;;;;;;;;;5081220;28;20043;-67
2022/05/29 00:54:55;;;;;;;3.28;2.40;;;;;;;;;;5080879;28;20032;-67
2022/05/29 00:57:33;;;;;;;8.68;2.85;;;;;;;;;;5079743;28;20036;-67
2022/05/29 01:00:02;;;;;;;5.32;2.63;;;;;;;;;;5080436;28;20032;-67
2022/05/29 01:02:28;;;;;;;4.22;2.40;;;;;;;;;;5080965;28;20036;-67
2022/05/29 01:04:53;;;;;;;2.17;1.92;;;;;;;;;;5080823;28;20085;-67
2022/05/29 01:07:22;;;;;;;5.30;2.33;;;;;;;;;;5073687;28;20106;-67
2022/05/29 01:09:49;;;;;;;5.82;2.08;;;;;;;;;;5079860;28;20043;-67
2022/05/29 01:12:36;;;;;;;6.25;2.85;;;;;;;;;;5080502;28;20127;-67
2022/05/29 01:15:23;;;;;;;7.40;2.92;;;;;;;;;;5080621;28;20040;-67
2022/05/29 01:18:29;;;;;;;6.65;3.30;;;;;;;;;;5079019;28;20040;-67
2022/05/29 01:21:04;;;;;;;3.95;2.60;;;;;;;;;;5041135;28;20047;-67
2022/05/29 01:23:48;;;;;;;3.53;2.58;;;;;;;;;;5080763;28;20036;-67
2022/05/29 01:26:25;;;;;;;6.18;2.47;;;;;;;;;;5080554;28;20043;-67
2022/05/29 01:29:09;;;;;;;3.90;3.13;;;;;;;;;;5079828;28;20047;-67
2022/05/29 01:31:49;;;;;;;6.60;2.70;;;;;;;;;;5078594;28;20034;-67
2022/05/29 01:34:33;;;;;;;4.28;2.88;;;;;;;;;;5080716;28;20119;-67
2022/05/29 01:37:08;;;;;;;3.38;2.45;;;;;;;;;;5080103;28;20039;-67
2022/05/29 01:39:40;;;;;;;2.78;2.50;;;;;;;;;;5079374;28;20036;-67
2022/05/29 01:42:37;;;;;;;4.63;2.30;;;;;;;;;;5083417;28;20040;-67
2022/05/29 01:45:24;;;;;;;4.20;2.45;;;;;;;;;;5084108;28;20504;-67
2022/05/29 01:47:58;;;;;;;2.28;2.08;;;;;;;;;;5084331;28;20067;-67
2022/05/29 01:50:35;;;;;;;3.97;2.20;;;;;;;;;;5064331;28;20032;-67
2022/05/29 01:53:07;;;;;;;3.75;2.08;;;;;;;;;;5084529;28;20085;-67
2022/05/29 01:55:47;;;;;;;3.47;2.05;;;;;;;;;;5084057;28;20459;-67
2022/05/29 01:58:17;;;;;;;2.70;2.13;;;;;;;;;;5083751;28;20130;-67
2022/05/29 02:00:46;;;;;;;5.10;2.15;;;;;;;;;;5083616;28;20436;-67
2022/05/29 02:03:16;;;;;;;4.82;2.15;;;;;;;;;;5083087;28;20036;-67
2022/05/29 02:06:09;;;;;;;7.57;2.28;;;;;;;;;;5084219;28;20032;-67
2022/05/29 02:08:50;;;;;;;5.93;2.67;;;;;;;;;;5083753;28;20057;-67
2022/05/29 02:11:21;;;;;;;4.00;2.30;;;;;;;;;;5083250;28;20054;-67
2022/05/29 02:13:52;;;;;;;5.15;2.45;;;;;;;;;;5083196;28;20506;-67
2022/05/29 02:16:42;;;;;;;5.28;2.67;;;;;;;;;;5083656;28;20519;-67
2022/05/29 02:19:17;;;;;;;6.45;2.67;;;;;;;;;;5083847;28;20072;-67
2022/05/29 02:21:55;;;;;;;4.00;2.28;;;;;;;;;;5082817;28;20122;-67
2022/05/29 02:24:31;;;;;;;3.05;2.53;;;;;;;;;;5082783;28;20051;-67
2022/05/29 02:27:11;;;;;;;5.30;2.40;;;;;;;;;;5083434;28;21014;-67
2022/05/29 02:29:37;;;;;;;9.10;2.38;;;;;;;;;;5083192;28;20047;-67
2022/05/29 02:32:24;;;;;;;5.93;2.75;;;;;;;;;;5083578;28;20137;-67
2022/05/29 02:34:58;;;;;;;5.97;2.35;;;;;;;;;;5063977;28;20044;-67
2022/05/29 02:37:29;;;;;;;4.57;2.22;;;;;;;;;;5066809;28;20412;-67
2022/05/29 02:40:22;;;;;;;3.92;2.38;;;;;;;;;;5082927;28;20369;-67
2022/05/29 02:43:19;;;;;;;7.03;2.50;;;;;;;;;;5083175;28;20047;-67
2022/05/29 02:45:49;;;;;;;6.40;2.53;;;;;;;;;;5082324;28;20040;-67
2022/05/29 02:48:26;;;;;;;2.45;2.10;;;;;;;;;;5083124;28;20115;-65
2022/05/29 02:51:04;;;;;;;3.63;2.35;;;;;;;;;;5082771;28;20729;-66
2022/05/29 02:53:32;;;;;;;2.88;2.30;;;;;;;;;;5065434;28;20553;-66
2022/05/29 02:55:58;;;;;;;2.33;2.00;;;;;;;;;;5083051;28;20055;-66
2022/05/29 02:58:29;;;;;;;2.53;2.10;;;;;;;;;;5082103;28;20036;-66
2022/05/29 03:01:04;;;;;;;2.40;2.20;;;;;;;;;;5082559;28;20489;-66
2022/05/29 03:03:38;;;;;;;6.97;2.45;;;;;;;;;;5083182;28;20137;-66
2022/05/29 03:06:19;;;;;;;8.25;2.75;;;;;;;;;;5082548;28;20028;-66
2022/05/29 03:09:10;;;;;;;3.00;2.17;;;;;;;;;;5079480;28;20055;-66
2022/05/29 03:11:38;;;;;;;4.78;2.30;;;;;;;;;;5078848;28;20051;-66
2022/05/29 03:14:31;;;;;;;4.53;2.22;;;;;;;;;;5082682;28;20050;-66
2022/05/29 03:16:59;;;;;;;3.47;2.50;;;;;;;;;;5082555;28;20430;-66
2022/05/29 03:19:31;;;;;;;2.70;2.40;;;;;;;;;;5081954;28;20046;-67
2022/05/29 03:22:34;;;;;;;2.83;2.28;;;;;;;;;;5080783;28;20043;-66
2022/05/29 03:25:15;;;;;;;2.97;2.20;;;;;;;;;;5081787;28;20043;-66
2022/05/29 03:27:45;;;;;;;4.95;2.35;;;;;;;;;;5064156;28;20047;-66
2022/05/29 03:30:37;;;;;;;3.20;2.30;;;;;;;;;;5081296;28;20148;-66
2022/05/29 03:33:06;;;;;;;3.45;2.72;;;;;;;;;;5077950;28;20084;-66
2022/05/29 03:35:45;;;;;;;4.93;3.20;;;;;;;;;;5081968;28;20044;-66
2022/05/29 03:38:10;;;;;;;6.05;2.63;;;;;;;;;;5082443;28;20139;-66
2022/05/29 03:40:36;;;;;;;4.45;3.15;;;;;;;;;;5080744;28;20130;-66
2022/05/29 03:43:02;;;;;;;7.00;4.35;;;;;;;;;;5082089;28;20983;-66
2022/05/29 03:45:28;;;;;;;3.75;2.63;;;;;;;;;;5082209;28;20488;-66
2022/05/29 03:47:55;;;;;;;4.30;2.83;;;;;;;;;;5081956;28;20036;-66
2022/05/29 03:50:22;;;;;;;4.68;2.10;;;;;;;;;;5081507;28;20055;-66
2022/05/29 03:52:48;;;;;;;5.90;2.63;;;;;;;;;;5080846;28;20940;-66
2022/05/29 03:55:15;;;;;;;2.90;1.95;;;;;;;;;;5081982;28;20047;-66
2022/05/29 03:57:41;;;;;;;2.50;2.10;;;;;;;;;;5082231;28;20032;-66
2022/05/29 04:00:09;;;;;;;4.80;2.03;;;;;;;;;;5081315;28;21039;-66
2022/05/29 04:02:40;;;;;;;4.57;2.55;;;;;;;;;;5081337;28;20106;-66
2022/05/29 04:05:09;;;;;;;5.82;2.80;;;;;;;;;;5081115;28;20450;-66
2022/05/29 04:13:03;;;;;;;2.67;2.20;;;;;;;;;;5081518;28;20038;-66
2022/05/29 04:15:29;;;;;;;6.10;3.13;;;;;;;;;;5080788;28;20445;-66
2022/05/29 04:17:54;;;;;;;5.80;2.85;;;;;;;;;;5081372;28;20032;-66
2022/05/29 04:20:21;;;;;;;6.10;2.83;;;;;;;;;;5080710;28;20373;-66
2022/05/29 04:22:46;;;;;;;4.07;2.72;;;;;;;;;;5081546;28;20469;-66
2022/05/29 04:25:12;;;;;;;5.57;2.95;;;;;;;;;;5080079;28;20038;-66
2022/05/29 04:27:38;;;;;;;5.07;3.00;;;;;;;;;;5081174;28;20169;-66
2022/05/29 04:30:05;;;;;;;4.22;2.28;;;;;;;;;;5080821;28;20172;-68
2022/05/29 04:35:14;;;;;;;5.25;2.00;;;;;;;;;;5080223;28;20105;-66
2022/05/29 04:37:40;;;;;;;3.10;2.10;;;;;;;;;;5081189;28;20048;-66
2022/05/29 04:40:06;;;;;;;10.43;2.40;;;;;;;;;;5080741;28;20044;-66
2022/05/29 04:42:31;;;;;;;2.35;2.10;;;;;;;;;;5063019;28;20590;-66
2022/05/29 04:44:57;;;;;;;3.95;2.90;;;;;;;;;;5081232;28;20047;-65
2022/05/29 04:47:22;;;;;;;4.60;3.38;;;;;;;;;;5080162;28;20118;-66
2022/05/29 04:49:48;;;;;;;5.40;2.90;;;;;;;;;;5080527;28;20316;-66
2022/05/29 04:52:13;;;;;;;5.50;2.92;;;;;;;;;;5081148;28;20058;-66
2022/05/29 04:54:40;;;;;;;4.95;2.85;;;;;;;;;;5081141;28;20033;-66
2022/05/29 04:57:07;;;;;;;5.60;2.53;;;;;;;;;;5080328;28;20032;-66
2022/05/29 04:59:34;;;;;;;4.70;2.33;;;;;;;;;;5080840;28;20040;-66
2022/05/29 05:02:00;;;;;;;3.25;2.20;;;;;;;;;;5080238;28;20101;-66
2022/05/29 05:04:26;;;;;;;6.10;1.90;;;;;;;;;;5081078;28;20456;-66
2022/05/29 05:06:58;;;;;;;3.10;2.22;;;;;;;;;;5080576;28;20048;-66
2022/05/29 05:09:24;;;;;;;2.47;2.28;;;;;;;;;;5080142;28;20036;-66
2022/05/29 05:11:51;;;;;;;3.83;2.17;;;;;;;;;;5080298;28;20034;-66
2022/05/29 05:14:17;;;;;;;2.30;1.80;;;;;;;;;;5078471;28;20032;-66
2022/05/29 05:16:42;;;;;;;1.85;1.70;;;;;;;;;;5082296;28;20423;-66
2022/05/29 05:19:07;;;;;;;3.75;2.10;;;;;;;;;;5084381;28;20048;-66
2022/05/29 05:21:33;;;;;;;3.67;2.10;;;;;;;;;;5084055;28;20023;-66
2022/05/29 05:23:58;;;;;;;3.10;2.30;;;;;;;;;;5085280;28;20116;-66
2022/05/29 05:26:24;;;;;;;3.03;2.25;;;;;;;;;;5084572;28;20032;-66
2022/05/29 05:28:49;;;;;;;3.40;2.10;;;;;;;;;;5085401;28;20043;-66
2022/05/29 05:31:14;;;;;;;4.25;1.90;;;;;;;;;;5082793;28;20044;-66
2022/05/29 05:33:40;;;;;;;5.15;2.30;;;;;;;;;;5084922;28;20050;-66
2022/05/29 05:36:06;;;;;;;2.70;1.92;;;;;;;;;;5065872;28;20177;-66
2022/05/29 05:38:32;;;;;;;7.70;2.00;;;;;;;;;;5066544;28;20043;-66
2022/05/29 05:40:57;;;;;;;8.88;2.40;;;;;;;;;;5084412;28;20032;-67
2022/05/29 05:43:23;;;;;;;5.05;2.40;;;;;;;;;;5081413;28;20036;-67
2022/05/29 05:45:48;;;;;;;3.25;2.13;;;;;;;;;;5083675;28;20131;-67
2022/05/29 05:48:15;;;;;;;4.60;2.25;;;;;;;;;;5083041;28;20126;-67
2022/05/29 05:50:41;;;;;;;6.97;2.00;;;;;;;;;;5083251;28;20044;-67
2022/05/29 05:53:07;;;;;;;5.50;1.63;;;;;;;;;;5082505;28;20438;-67
2022/05/29 05:55:32;;;;;;;2.53;1.65;;;;;;;;;;5082718;28;20036;-67
2022/05/29 05:57:58;;;;;;;4.35;1.63;;;;;;;;;;5082868;28;20040;-67
2022/05/29 06:00:23;;;;;;;4.05;2.00;;;;;;;;;;5082788;28;20044;-67
2022/05/29 06:02:49;;;;;;;3.17;1.60;;;;;;;;;;5083545;28;20080;-67
2022/05/29 06:05:15;;;;;;;6.10;1.88;;;;;;;;;;5082374;28;20036;-67
2022/05/29 06:07:41;;;;;;;2.03;1.70;;;;;;;;;;5083132;28;20039;-67
2022/05/29 06:10:08;;;;;;;4.57;1.90;;;;;;;;;;5080362;28;20047;-67
2022/05/29 06:12:33;;;;;;;7.00;1.90;;;;;;;;;;5082347;28;20064;-67
2022/05/29 06:14:59;;;;;;;4.50;2.28;;;;;;;;;;5079991;28;20071;-67
2022/05/29 06:17:26;;;;;;;6.53;2.13;;;;;;;;;;5081615;28;20060;-67
2022/05/29 06:19:51;;;;;;;5.18;2.28;;;;;;;;;;5080396;28;20093;-67
2022/05/29 06:22:17;;;;;;;5.03;2.22;;;;;;;;;;5081513;28;20032;-67
2022/05/29 06:24:43;;;;;;;4.80;2.30;;;;;;;;;;5075747;28;20078;-67
2022/05/29 06:27:08;;;;;;;5.55;2.22;;;;;;;;;;5078718;28;20046;-67
2022/05/29 06:29:35;;;;;;;5.25;2.30;;;;;;;;;;5079483;28;20036;-67
2022/05/29 06:32:03;;;;;;;4.38;2.38;;;;;;;;;;5078337;28;20545;-67
2022/05/29 06:34:29;;;;;;;6.75;1.98;;;;;;;;;;5078811;28;20081;-67
2022/05/29 06:36:55;;;;;;;6.85;2.15;;;;;;;;;;5078933;28;20103;-68
2022/05/29 06:39:22;;;;;;;3.70;1.77;;;;;;;;;;5084251;28;20119;-68
2022/05/29 06:41:48;;;;;;;3.63;2.35;;;;;;;;;;5079171;28;20404;-68
2022/05/29 06:44:22;;;;;;;3.58;1.98;;;;;;;;;;5061197;28;20383;-68
2022/05/29 06:46:48;;;;;;;3.85;1.92;;;;;;;;;;5081609;28;20449;-68
2022/05/29 06:49:13;;;;;;;7.20;2.28;;;;;;;;;;5045113;28;20036;-68
2022/05/29 06:51:39;;;;;;;4.55;2.08;;;;;;;;;;5079892;28;20048;-68
2022/05/29 06:54:05;;;;;;;6.05;1.90;;;;;;;;;;5081343;28;20040;-68
2022/05/29 06:56:31;;;;;;;2.65;1.77;;;;;;;;;;5081510;28;20036;-69
2022/05/29 06:58:58;;;;;;;3.92;1.90;;;;;;;;;;5063893;28;20055;-68
2022/05/29 07:07:01;;;;;;;9.48;1.83;;;;;;;;;;5082774;28;20111;-67
2022/05/29 07:09:36;;;;;;;3.10;1.90;;;;;;;;;;5080738;28;20147;-66
2022/05/29 07:12:09;;;;;;;5.55;1.77;;;;;;;;;;5081425;28;20040;-67
2022/05/29 07:14:37;;;;;;;2.72;1.58;;;;;;;;;;5082247;28;20032;-67
2022/05/29 07:17:03;;;;;;;4.50;2.10;;;;;;;;;;5077592;28;20051;-67
2022/05/29 07:19:29;;;;;;;5.30;1.95;;;;;;;;;;5082388;28;20040;-67
2022/05/29 07:21:57;;;;;;;2.42;1.52;;;;;;;;;;5081173;28;20403;-67
2022/05/29 07:24:26;;;;;;;3.67;1.90;;;;;;;;;;5062913;28;20040;-67
2022/05/29 07:26:53;;;;;;;1.92;1.58;;;;;;;;;;5081723;28;20036;-67
2022/05/29 07:29:22;;;;;;;2.63;1.63;;;;;;;;;;5080985;28;20484;-67
2022/05/29 07:31:48;;;;;;;1.95;1.48;;;;;;;;;;5079122;28;20027;-67
2022/05/29 07:34:13;;;;;;;1.65;1.40;;;;;;;;;;5081597;28;21026;-67
2022/05/29 07:36:39;;;;;;;1.45;1.30;;;;;;;;;;5082180;28;20105;-67
2022/05/29 07:39:05;;;;;;;3.70;1.80;;;;;;;;;;5081118;28;20027;-67
2022/05/29 07:44:14;;;;;;;3.97;2.05;;;;;;;;;;5079465;28;20544;-67
2022/05/29 07:46:40;;;;;;;4.07;1.50;;;;;;;;;;5062091;28;20043;-67
2022/05/29 07:49:06;;;;;;;3.53;1.70;;;;;;;;;;5080891;28;20040;-67
2022/05/29 07:51:32;;;;;;;3.40;1.38;;;;;;;;;;5080259;28;20048;-67
2022/05/29 07:53:58;;;;;;;2.63;1.48;;;;;;;;;;5079895;28;20050;-67
2022/05/29 07:56:25;;;;;;;2.65;1.50;;;;;;;;;;5080427;28;20040;-66
2022/05/29 07:58:50;;;;;;;4.43;1.70;;;;;;;;;;5081508;28;20043;-66
2022/05/29 08:01:16;;;;;;;2.97;1.55;;;;;;;;;;5081357;28;20130;-67
2022/05/29 08:03:41;;;;;;;4.53;2.00;;;;;;;;;;5081569;28;20040;-67
2022/05/29 08:06:07;;;;;;;4.28;1.60;;;;;;;;;;5080957;28;20069;-67
2022/05/29 08:08:34;;;;;;;2.88;1.65;;;;;;;;;;5077531;28;20547;-67
2022/05/29 08:11:00;;;;;;;5.70;1.70;;;;;;;;;;5079189;28;20040;-66
2022/05/29 08:13:25;;;;;;;7.57;1.70;;;;;;;;;;5076814;28;20445;-67
2022/05/29 08:15:51;;;;;;;8.93;1.75;;;;;;;;;;5079918;28;20032;-67
2022/05/29 08:18:17;;;;;;;1.50;1.40;;;;;;;;;;5081237;28;20028;-66
2022/05/29 08:20:42;;;;;;;3.50;1.70;;;;;;;;;;5079183;28;20429;-67
2022/05/29 08:23:08;;;;;;;3.08;1.70;;;;;;;;;;5080967;28;20036;-66
2022/05/29 08:31:04;;;;;;;4.93;1.80;;;;;;;;;;5080823;28;20057;-67
2022/05/29 08:33:33;;;;;;;3.33;1.80;;;;;;;;;;5081234;28;20050;-67
2022/05/29 08:36:02;;;;;;;2.03;1.52;;;;;;;;;;5080142;28;20047;-67
2022/05/29 08:38:28;;;;;;;4.25;1.77;;;;;;;;;;5079226;28;20503;-67
2022/05/29 08:40:58;;;;;;;3.33;1.88;;;;;;;;;;5079285;28;20039;-67
2022/05/29 08:43:34;;;;;;;5.53;1.70;;;;;;;;;;5077748;28;20050;-67
2022/05/29 08:46:05;;;;;;;4.97;1.70;;;;;;;;;;5079329;28;20028;-67
2022/05/29 08:48:31;;;;;;;3.88;1.70;;;;;;;;;;5079472;28;20044;-67
2022/05/29 08:51:26;;;;;;;4.63;1.95;;;;;;;;;;5078672;28;20031;-67
2022/05/29 08:53:53;;;;;;;3.92;1.60;;;;;;;;;;5080084;28;20067;-67
2022/05/29 08:56:42;;;;;;;2.80;1.75;;;;;;;;;;5078992;28;20107;-67
2022/05/29 08:59:37;;;;;;;2.63;1.90;;;;;;;;;;5079098;28;20067;-67
2022/05/29 09:02:17;;;;;;;2.95;1.60;;;;;;;;;;5079357;28;20408;-67
2022/05/29 09:04:50;;;;;;;5.05;1.80;;;;;;;;;;5080334;28;20032;-68
2022/05/29 09:07:19;;;;;;;4.47;2.00;;;;;;;;;;5078862;28;20027;-69
2022/05/29 09:09:56;;;;;;;4.03;1.90;;;;;;;;;;5079850;28;20036;-67
2022/05/29 09:12:37;;;;;;;2.75;1.80;;;;;;;;;;5078031;28;20028;-67
2022/05/29 09:15:11;;;;;;;5.03;1.80;;;;;;;;;;5079722;28;20500;-67
2022/05/29 09:17:43;;;;;;;3.15;1.75;;;;;;;;;;5078944;28;20489;-67
2022/05/29 09:20:25;;;;;;;1.77;1.52;;;;;;;;;;5078412;28;20042;-67
2022/05/29 09:22:50;;;;;;;3.83;1.53;;;;;;;;;;5078651;28;20119;-67
2022/05/29 09:25:40;;;;;;;3.50;1.70;;;;;;;;;;5079835;28;20368;-66
2022/05/29 09:28:14;;;;;;;2.97;1.40;;;;;;;;;;5066343;28;20637;-66
2022/05/29 09:30:40;;;;;;;2.42;1.30;;;;;;;;;;5078898;28;20048;-66
2022/05/29 09:33:14;;;;;;;2.88;1.52;;;;;;;;;;5079303;28;20629;-66
2022/05/29 09:35:52;;;;;;;3.33;1.52;;;;;;;;;;5080895;28;20042;-66
2022/05/29 09:38:31;;;;;;;8.00;1.60;;;;;;;;;;5079642;28;20122;-66
2022/05/29 09:41:07;;;;;;;3.33;1.52;;;;;;;;;;5080062;28;20047;-66
2022/05/29 09:43:32;;;;;;;3.88;1.48;;;;;;;;;;5078037;28;20040;-67
2022/05/29 09:46:20;;;;;;;3.78;1.77;;;;;;;;;;5079020;28;20028;-66
2022/05/29 09:52:12;;;;;;;2.88;1.70;;;;;;;;;;5077628;28;20047;-66
2022/05/29 09:54:44;;;;;;;2.67;1.50;;;;;;;;;;5022481;28;20692;-66
2022/05/29 09:57:13;;;;;;;4.68;1.85;;;;;;;;;;5078397;28;20051;-67
2022/05/29 09:59:43;;;;;;;3.65;1.75;;;;;;;;;;5077998;28;20545;-66
2022/05/29 10:02:26;;;;;;;3.78;1.70;;;;;;;;;;5079421;28;20565;-66
2022/05/29 10:04:54;;;;;;;8.68;2.10;;;;;;;;;;5082904;28;20039;-66
2022/05/29 10:07:35;;;;;;;7.70;1.88;;;;;;;;;;5081349;28;20408;-66
2022/05/29 10:10:13;;;;;;;5.03;2.20;;;;;;;;;;5082827;28;20111;-66
2022/05/29 10:12:47;;;;;;;7.38;2.50;;;;;;;;;;5083953;28;20565;-66
2022/05/29 10:15:35;;;;;;;4.80;2.40;;;;;;;;;;5065327;28;20464;-66
2022/05/29 10:18:33;;;;;;;4.75;1.80;;;;;;;;;;5082360;28;20058;-66
2022/05/29 10:21:07;;;;;;;5.95;1.88;;;;;;;;;;5071330;28;20138;-66
2022/05/29 10:23:36;;;;;;;5.18;2.00;;;;;;;;;;5082909;28;20072;-66
2022/05/29 10:26:11;;;;;;;4.63;2.17;;;;;;;;;;5082378;28;20028;-66
2022/05/29 10:28:38;;;;;;;7.65;2.30;;;;;;;;;;5081765;28;20111;-66
2022/05/29 10:31:13;;;;;;;10.13;2.25;;;;;;;;;;5063307;28;20032;-66
2022/05/29 10:33:39;;;;;;;3.30;2.22;;;;;;;;;;5082704;28;20431;-66
2022/05/29 10:36:16;;;;;;;3.15;2.38;;;;;;;;;;5082283;28;20039;-67
2022/05/29 10:38:43;;;;;;;5.97;2.42;;;;;;;;;;5077851;28;20047;-66
2022/05/29 10:41:12;;;;;;;2.60;2.40;;;;;;;;;;5081672;28;20036;-66
2022/05/29 10:43:46;;;;;;;5.50;2.42;;;;;;;;;;5081399;28;20032;-67
2022/05/29 10:46:19;;;;;;;4.85;2.38;;;;;;;;;;5082573;28;20120;-66
2022/05/29 10:48:56;;;;;;;3.80;2.20;;;;;;;;;;5082923;28;20106;-65
2022/05/29 10:51:28;;;;;;;5.32;2.58;;;;;;;;;;5063341;28;20040;-66
2022/05/29 10:54:14;;;;;;;;;;;;;;;;;;5082447;28;20047;-66
2022/05/29 10:56:55;;;;;;;4.15;2.58;;;;;;;;;;5082065;28;19931;-66
2022/05/29 10:59:35;;;;;;;5.63;2.40;;;;;;;;;;5082957;28;20044;-66
2022/05/29 11:05:26;;;;;;;5.07;2.60;;;;;;;;;;5081713;28;20883;-66
2022/05/29 11:07:59;;;;;;;5.97;2.80;;;;;;;;;;5081942;28;20580;-68
2022/05/29 11:10:24;;;;;;;5.88;3.00;;;;;;;;;;5081352;28;20032;-67
2022/05/29 11:13:19;;;;;;;7.90;3.00;;;;;;;;;;5079698;28;20101;-67
2022/05/29 11:15:56;;;;;;;9.82;2.95;;;;;;;;;;5080676;28;20040;-66
2022/05/29 11:18:48;;;;;;;9.63;3.08;;;;;;;;;;5081505;28;20068;-66
2022/05/29 11:21:39;;;;;;;8.07;2.85;;;;;;;;;;5080713;28;20093;-66
2022/05/29 11:24:40;;;;;;;5.75;2.92;;;;;;;;;;5080824;28;20077;-67
2022/05/29 11:27:08;;;;;;;3.10;2.20;;;;;;;;;;5080611;28;20032;-67
2022/05/29 11:29:57;;;;;;;4.60;2.28;;;;;;;;;;5081550;28;20123;-67
2022/05/29 11:32:49;;;;;;;3.20;2.50;;;;;;;;;;5080725;28;20028;-67
2022/05/29 11:35:30;;;;;;;4.50;2.30;;;;;;;;;;5079819;28;20067;-67
2022/05/29 11:38:29;;;;;;;5.35;2.22;;;;;;;;;;5062225;28;20044;-67
2022/05/29 11:41:20;;;;;;;5.80;2.80;;;;;;;;;;5081693;28;20389;-66
2022/05/29 11:44:13;;;;;;;2.85;2.17;;;;;;;;;;5082309;28;20151;-68
2022/05/29 11:52:46;;;;;;;5.57;2.80;;;;;;;;;;5081376;28;20043;-68
2022/05/29 11:55:22;;;;;;;4.10;2.30;;;;;;;;;;5079429;28;20096;-68
2022/05/29 11:57:58;;;;;;;4.50;2.50;;;;;;;;;;5080790;28;20043;-67
2022/05/29 12:00:27;;;;;;;3.10;2.28;;;;;;;;;;5080859;28;20090;-68
2022/05/29 12:03:04;;;;;;;6.75;2.47;;;;;;;;;;5081911;28;20130;-67
2022/05/29 12:05:56;;;;;;;2.50;1.77;;;;;;;;;;5078027;28;20031;-67
2022/05/29 12:08:46;;;;;;;4.38;2.60;;;;;;;;;;5065808;28;20044;-66
2022/05/29 12:11:20;;;;;;;3.58;2.30;;;;;;;;;;5080487;28;20560;-67
2022/05/29 12:14:19;;;;;;;2.78;2.20;;;;;;;;;;5080604;28;20073;-67
2022/05/29 12:16:48;;;;;;;6.18;2.05;;;;;;;;;;5060712;28;20101;-67
2022/05/29 12:19:19;;;;;;;5.65;1.98;;;;;;;;;;5079153;28;20035;-67
2022/05/29 12:22:04;;;;;;;4.15;1.60;;;;;;;;;;5046518;28;20412;-67
2022/05/29 12:24:34;;;;;;;2.63;1.40;;;;;;;;;;5080289;28;20503;-67
2022/05/29 12:27:07;;;;;;;6.22;2.00;;;;;;;;;;5079958;28;20044;-67
2022/05/29 12:29:38;;;;;;;3.88;1.60;;;;;;;;;;5078730;28;20044;-67
2022/05/29 12:32:22;;;;;;;3.43;1.90;;;;;;;;;;5079146;28;20042;-67
2022/05/29 12:34:51;;;;;;;4.18;1.65;;;;;;;;;;5080398;28;20520;-67
2022/05/29 12:37:30;;;;;;;4.28;1.60;;;;;;;;;;5080441;28;20034;-67
2022/05/29 12:40:10;;;;;;;1.77;1.15;;;;;;;;;;5079030;28;20081;-67
2022/05/29 12:42:45;;;;;;;3.58;2.05;;;;;;;;;;5048580;28;20047;-67
2022/05/29 12:45:51;;;;;;;3.55;2.00;;;;;;;;;;5080641;28;20047;-67
2022/05/29 12:48:34;;;;;;;3.92;1.70;;;;;;;;;;5079571;28;20052;-67
2022/05/29 12:51:43;;;;;;;2.53;1.67;;;;;;;;;;5077885;28;20092;-67
2022/05/29 12:54:17;;;;;;;8.95;1.30;;;;;;;;;;5080803;28;20040;-67
2022/05/29 12:56:55;;;;;;;4.00;1.75;;;;;;;;;;5055083;28;20078;-67
2022/05/29 12:59:39;;;;;;;5.03;1.77;;;;;;;;;;5080896;28;20046;-67
2022/05/29 13:02:32;;;;;;;4.28;1.30;;;;;;;;;;5079082;28;20043;-67
2022/05/29 13:05:12;;;;;;;5.22;1.30;;;;;;;;;;5080507;28;20058;-67
2022/05/29 13:08:15;;;;;;;3.65;1.20;;;;;;;;;;5080523;28;20036;-67
2022/05/29 13:10:43;;;;;;;3.47;1.75;;;;;;;;;;5080461;28;20044;-67
2022/05/29 13:13:16;;;;;;;3.67;1.98;;;;;;;;;;5079492;28;20121;-67
2022/05/29 13:15:42;;;;;;;8.30;1.88;;;;;;;;;;5080000;28;20269;-66
2022/05/29 13:21:20;;;;;;;8.60;2.20;;;;;;;;;;5079709;28;20085;-67
2022/05/29 13:23:54;;;;;;;3.85;1.30;;;;;;;;;;5059899;28;20068;-67
2022/05/29 13:26:28;;;;;;;2.30;1.35;;;;;;;;;;5077815;28;20038;-67
2022/05/29 13:28:59;;;;;;;3.53;1.13;;;;;;;;;;5058889;28;20032;-67
2022/05/29 13:31:26;;;;;;;3.15;1.20;;;;;;;;;;5075801;28;20492;-66
2022/05/29 13:33:59;;;;;;;2.38;1.42;;;;;;;;;;5076428;28;20032;-67
2022/05/29 13:36:40;;;;;;;1.50;1.10;;;;;;;;;;5078515;28;20036;-67
2022/05/29 13:39:10;;;;;;;1.67;1.30;;;;;;;;;;5081565;28;21097;-67
2022/05/29 13:42:21;;;;;;;4.68;1.45;;;;;;;;;;5081058;28;20035;-67
2022/05/29 13:44:46;;;;;;;2.63;1.70;;;;;;;;;;5080078;28;20044;-67
2022/05/29 13:47:22;;;;;;;11.15;2.72;;;;;;;;;;5082318;28;20028;-67
2022/05/29 13:50:11;;;;;;;5.03;2.15;;;;;;;;;;5082535;28;20480;-68
2022/05/29 13:52:51;;;;;;;3.97;1.85;;;;;;;;;;5082077;28;20038;-68
2022/05/29 13:55:42;;;;;;;2.63;1.90;;;;;;;;;;5078867;28;20408;-67
2022/05/29 14:03:58;;;;;;;4.68;2.70;;;;;;;;;;5081860;28;20081;-67
2022/05/29 14:06:27;;;;;;;4.15;2.67;;;;;;;;;;5080802;28;20400;-66
2022/05/29 14:08:55;;;;;;;3.40;2.83;;;;;;;;;;5082179;28;20040;-67
2022/05/29 14:11:40;;;;;;;4.43;2.90;;;;;;;;;;5063286;28;20040;-67
2022/05/29 14:14:34;;;;;;;3.97;3.30;;;;;;;;;;5081029;28;20032;-66
2022/05/29 14:17:10;;;;;;;7.13;3.10;;;;;;;;;;5080883;28;20051;-67
2022/05/29 14:19:59;;;;;;;4.63;3.15;;;;;;;;;;5081946;28;20031;-67
2022/05/29 14:22:54;;;;;;;4.65;2.35;;;;;;;;;;5081791;28;20563;-67
2022/05/29 14:25:22;;;;;;;4.90;2.38;;;;;;;;;;5081456;28;20047;-67
2022/05/29 14:28:04;;;;;;;3.38;2.63;;;;;;;;;;5062998;28;21039;-67
2022/05/29 14:30:51;;;;;;;4.55;2.58;;;;;;;;;;5080886;28;20937;-67
2022/05/29 14:33:55;;;;;;;4.07;3.63;;;;;;;;;;5080762;28;20458;-67
2022/05/29 14:36:29;;;;;;;5.32;2.55;;;;;;;;;;5080568;28;20046;-67
2022/05/29 14:39:14;;;;;;;3.47;2.50;;;;;;;;;;5079415;28;20040;-67
2022/05/29 14:41:52;;;;;;;7.75;3.22;;;;;;;;;;5079893;28;20044;-67
2022/05/29 14:44:26;;;;;;;2.40;2.03;;;;;;;;;;5079689;28;20036;-67
2022/05/29 14:49:31;;;;;;;2.63;2.35;;;;;;;;;;5080535;28;20436;-67
2022/05/29 14:52:03;;;;;;;2.28;2.00;;;;;;;;;;5078743;28;20085;-67
2022/05/29 14:54:39;;;;;;;9.35;2.60;;;;;;;;;;5077694;28;20044;-67
2022/05/29 14:57:15;;;;;;;3.45;2.38;;;;;;;;;;5079794;28;20036;-67
2022/05/29 14:59:40;;;;;;;3.13;2.33;;;;;;;;;;5077220;28;20201;-67
2022/05/29 15:02:21;;;;;;;3.25;2.63;;;;;;;;;;5079183;28;20122;-66
2022/05/29 15:04:49;;;;;;;2.53;2.33;;;;;;;;;;5081183;28;20028;-66
2022/05/29 15:10:34;;;;;;;2.67;2.45;;;;;;;;;;5080252;28;20038;-66
2022/05/29 15:13:13;;;;;;;3.63;2.30;;;;;;;;;;5079970;28;20515;-66
2022/05/29 15:15:59;;;;;;;2.65;2.30;;;;;;;;;;5080830;28;20067;-66
2022/05/29 15:18:28;;;;;;;2.17;1.98;;;;;;;;;;5061969;28;20044;-68
2022/05/29 15:26:49;;;;;;;;;;;;;;;;;;5081798;28;20055;-68
2022/05/29 15:29:20;;;;;;;2.45;1.48;;;;;;;;;;5079904;28;19927;-68
2022/05/29 15:31:48;;;;;;;1.63;1.50;;;;;;;;;;5079190;28;20046;-68
2022/05/29 15:34:35;;;;;;;3.55;1.77;;;;;;;;;;5079282;28;20042;-69
2022/05/29 15:37:08;;;;;;;3.90;1.80;;;;;;;;;;5079062;28;20035;-68
2022/05/29 15:39:53;;;;;;;2.90;1.55;;;;;;;;;;5062233;28;20032;-68
2022/05/29 15:42:24;;;;;;;3.05;1.50;;;;;;;;;;5079034;28;20040;-69
2022/05/29 15:45:21;;;;;;;1.88;1.30;;;;;;;;;;5079261;28;20510;-69
2022/05/29 15:48:26;;;;;;;2.30;1.50;;;;;;;;;;5013318;28;20050;-67
2022/05/29 15:51:13;;;;;;;3.60;1.50;;;;;;;;;;5043500;28;20115;-66
2022/05/29 15:53:48;;;;;;;2.05;1.50;;;;;;;;;;5080368;28;20512;-66
2022/05/29 15:56:19;;;;;;;3.40;1.50;;;;;;;;;;5078641;28;20058;-66
2022/05/29 15:59:11;;;;;;;11.10;1.47;;;;;;;;;;5078637;28;20121;-66
2022/05/29 16:01:59;;;;;;;2.88;1.40;;;;;;;;;;5078579;28;20122;-66
2022/05/29 16:04:44;;;;;;;2.95;1.35;;;;;;;;;;5079292;28;21038;-66
2022/05/29 16:07:39;;;;;;;1.63;1.40;;;;;;;;;;5078852;28;20420;-66
2022/05/29 16:10:09;;;;;;;3.30;1.83;;;;;;;;;;5079328;28;20028;-69
2022/05/29 16:12:44;;;;;;;2.38;1.63;;;;;;;;;;5078945;28;20031;-70
2022/05/29 16:15:10;;;;;;;2.45;1.67;;;;;;;;;;5078335;28;20084;-67
2022/05/29 16:17:48;;;;;;;3.65;1.95;;;;;;;;;;5079539;28;20734;-67